createdAt,value
2022-08-18T00:00:25.486Z,46.42
2022-08-18T00:00:58.062Z,45.85
2022-08-18T00:01:29.403Z,46.44
2022-08-18T00:02:03.333Z,46.03
2022-08-18T00:02:35.809Z,46.08
2022-08-18T00:03:12.258Z,46.11
2022-08-18T00:04:03.334Z,46.37
2022-08-18T00:04:41.896Z,45.81
2022-08-18T00:05:20.124Z,45.83
2022-08-18T00:05:52.298Z,45.80
2022-08-18T00:06:23.618Z,45.67
2022-08-18T00:06:55.077Z,46.12
2022-08-18T00:07:27.510Z,46.29
2022-08-18T00:07:58.808Z,46.25
2022-08-18T00:08:30.170Z,46.23
2022-08-18T00:09:02.050Z,46.42
2022-08-18T00:09:34.361Z,45.76
2022-08-18T00:10:05.833Z,46.00
2022-08-18T00:10:37.141Z,45.96
2022-08-18T00:11:08.422Z,45.64
2022-08-18T00:11:42.085Z,46.13
2022-08-18T00:12:14.930Z,45.59
2022-08-18T00:12:46.257Z,45.68
2022-08-18T00:13:17.573Z,46.04
2022-08-18T00:13:48.907Z,45.62
2022-08-18T00:14:22.638Z,45.57
2022-08-18T00:14:54.448Z,45.87
2022-08-18T00:15:25.764Z,45.93
2022-08-18T00:15:57.075Z,45.61
2022-08-18T00:16:28.403Z,46.01
2022-08-18T00:16:59.703Z,45.56
2022-08-18T00:17:31.747Z,45.47
2022-08-18T00:18:03.163Z,45.58
2022-08-18T00:18:34.484Z,45.96
2022-08-18T00:19:09.246Z,45.61
2022-08-18T00:19:46.286Z,45.53
2022-08-18T00:20:20.792Z,45.73
2022-08-18T00:20:52.200Z,46.04
2022-08-18T00:21:23.553Z,45.58
2022-08-18T00:21:54.984Z,45.99
2022-08-18T00:22:26.284Z,45.85
2022-08-18T00:22:57.596Z,45.58
2022-08-18T00:23:28.884Z,45.55
2022-08-18T00:24:00.277Z,45.83
2022-08-18T00:24:31.603Z,45.72
2022-08-18T00:25:02.943Z,45.60
2022-08-18T00:25:34.269Z,45.62
2022-08-18T00:26:05.633Z,45.52
2022-08-18T00:26:37.230Z,45.66
2022-08-18T00:27:08.937Z,45.93
2022-08-18T00:27:40.318Z,46.04
2022-08-18T00:28:11.817Z,45.68
2022-08-18T00:28:43.113Z,46.15
2022-08-18T00:29:14.442Z,45.57
2022-08-18T00:29:45.739Z,46.00
2022-08-18T00:30:18.333Z,45.98
2022-08-18T00:30:49.630Z,45.92
2022-08-18T00:31:25.383Z,46.03
2022-08-18T00:31:56.704Z,45.87
2022-08-18T00:32:29.103Z,45.74
2022-08-18T00:33:00.485Z,45.97
2022-08-18T00:33:31.840Z,45.69
2022-08-18T00:34:03.171Z,45.79
2022-08-18T00:34:34.479Z,45.68
2022-08-18T00:35:09.907Z,45.56
2022-08-18T00:35:41.215Z,45.96
2022-08-18T00:36:12.553Z,45.44
2022-08-18T00:36:43.883Z,45.87
2022-08-18T00:37:15.202Z,45.42
2022-08-18T00:37:46.504Z,45.66
2022-08-18T00:38:24.306Z,45.51
2022-08-18T00:38:56.762Z,45.43
2022-08-18T00:39:28.134Z,45.63
2022-08-18T00:40:06.757Z,45.41
2022-08-18T00:40:39.427Z,45.98
2022-08-18T00:41:10.731Z,45.93
2022-08-18T00:41:42.289Z,45.91
2022-08-18T00:42:27.462Z,45.96
2022-08-18T00:43:03.595Z,45.61
2022-08-18T00:43:37.540Z,45.56
2022-08-18T00:44:08.853Z,45.55
2022-08-18T00:44:40.172Z,45.81
2022-08-18T00:45:13.866Z,45.88
2022-08-18T00:45:45.319Z,45.56
2022-08-18T00:46:20.705Z,45.91
2022-08-18T00:46:51.996Z,45.55
2022-08-18T00:47:36.402Z,46.06
2022-08-18T00:48:14.273Z,45.49
2022-08-18T00:48:48.611Z,45.56
2022-08-18T00:49:20.328Z,45.54
2022-08-18T00:49:51.705Z,45.76
2022-08-18T00:50:24.273Z,45.64
2022-08-18T00:50:57.034Z,45.65
2022-08-18T00:51:30.963Z,45.71
2022-08-18T00:52:02.301Z,45.97
2022-08-18T00:52:33.688Z,45.93
2022-08-18T00:53:07.331Z,45.51
2022-08-18T00:53:41.058Z,45.97
2022-08-18T00:54:14.798Z,45.47
2022-08-18T00:54:46.326Z,45.82
2022-08-18T00:55:17.623Z,45.92
2022-08-18T00:55:53.702Z,45.91
2022-08-18T00:56:27.090Z,45.54
2022-08-18T00:56:59.538Z,45.65
2022-08-18T00:57:31.137Z,45.43
2022-08-18T00:58:04.953Z,45.48
2022-08-18T00:58:37.684Z,45.55
2022-08-18T00:59:17.831Z,45.78
2022-08-18T01:00:00.642Z,45.65
2022-08-18T01:00:32.004Z,45.67
2022-08-18T01:01:04.091Z,45.70
2022-08-18T01:01:35.457Z,45.74
2022-08-18T01:02:07.114Z,45.32
2022-08-18T01:02:39.953Z,45.60
2022-08-18T01:03:14.157Z,45.42
2022-08-18T01:03:45.589Z,45.42
2022-08-18T01:04:24.241Z,45.65
2022-08-18T01:05:03.308Z,45.66
2022-08-18T01:05:34.586Z,45.59
2022-08-18T01:06:07.210Z,45.61
2022-08-18T01:06:46.929Z,45.18
2022-08-18T01:07:20.044Z,45.64
2022-08-18T01:07:51.567Z,45.58
2022-08-18T01:08:29.151Z,45.37
2022-08-18T01:09:00.665Z,45.69
2022-08-18T01:09:32.723Z,45.11
2022-08-18T01:10:04.165Z,45.49
2022-08-18T01:10:35.585Z,45.44
2022-08-18T01:11:06.910Z,45.25
2022-08-18T01:11:38.438Z,45.17
2022-08-18T01:12:33.602Z,45.56
2022-08-18T01:13:01.045Z,45.66
2022-08-18T01:13:32.443Z,45.29
2022-08-18T01:14:04.649Z,45.51
2022-08-18T01:14:36.988Z,45.46
2022-08-18T01:15:08.534Z,45.38
2022-08-18T01:15:59.848Z,45.48
2022-08-18T01:16:31.171Z,45.57
2022-08-18T01:17:02.471Z,45.28
2022-08-18T01:17:33.769Z,45.25
2022-08-18T01:18:06.494Z,45.60
2022-08-18T01:18:38.653Z,45.51
2022-08-18T01:19:09.957Z,45.29
2022-08-18T01:19:41.259Z,45.23
2022-08-18T01:20:12.991Z,45.70
2022-08-18T01:20:44.260Z,45.22
2022-08-18T01:21:22.286Z,45.17
2022-08-18T01:21:55.785Z,45.46
2022-08-18T01:22:37.806Z,45.13
2022-08-18T01:23:15.672Z,45.11
2022-08-18T01:23:47.231Z,45.57
2022-08-18T01:24:21.846Z,45.26
2022-08-18T01:24:53.630Z,45.09
2022-08-18T01:25:26.325Z,45.60
2022-08-18T01:25:57.905Z,45.17
2022-08-18T01:26:29.217Z,45.45
2022-08-18T01:27:00.505Z,45.54
2022-08-18T01:27:31.794Z,45.50
2022-08-18T01:28:03.614Z,45.48
2022-08-18T01:28:38.679Z,45.35
2022-08-18T01:29:09.962Z,45.14
2022-08-18T01:29:43.522Z,45.28
2022-08-18T01:30:15.638Z,45.12
2022-08-18T01:30:48.277Z,45.36
2022-08-18T01:31:29.927Z,45.50
2022-08-18T01:32:01.256Z,45.32
2022-08-18T01:32:32.571Z,45.06
2022-08-18T01:33:03.912Z,45.50
2022-08-18T01:33:39.142Z,45.43
2022-08-18T01:34:12.457Z,45.43
2022-08-18T01:34:43.929Z,45.23
2022-08-18T01:35:15.630Z,45.04
2022-08-18T01:35:47.375Z,45.43
2022-08-18T01:36:19.301Z,45.36
2022-08-18T01:36:50.662Z,45.16
2022-08-18T01:37:22.561Z,45.15
2022-08-18T01:37:54.150Z,45.60
2022-08-18T01:38:25.458Z,45.55
2022-08-18T01:38:56.795Z,45.24
2022-08-18T01:41:06.299Z,45.13
2022-08-18T01:41:22.317Z,45.18
2022-08-18T01:41:28.529Z,45.05
2022-08-18T01:42:01.359Z,45.49
2022-08-18T01:42:32.752Z,45.14
2022-08-18T01:43:04.069Z,45.50
2022-08-18T01:43:35.583Z,45.26
2022-08-18T01:44:06.922Z,45.54
2022-08-18T01:44:38.514Z,45.55
2022-08-18T01:45:10.097Z,45.50
2022-08-18T01:45:41.592Z,44.91
2022-08-18T01:46:12.901Z,45.32
2022-08-18T01:46:44.202Z,45.46
2022-08-18T01:47:15.521Z,45.42
2022-08-18T01:47:48.436Z,45.02
2022-08-18T01:48:19.987Z,45.26
2022-08-18T01:48:51.295Z,45.30
2022-08-18T01:49:22.603Z,44.98
2022-08-18T01:49:54.106Z,45.07
2022-08-18T01:50:25.414Z,45.22
2022-08-18T01:50:56.690Z,45.18
2022-08-18T01:51:34.727Z,44.74
2022-08-18T01:52:13.999Z,44.72
2022-08-18T01:52:45.368Z,44.97
2022-08-18T01:53:16.659Z,44.96
2022-08-18T01:53:47.950Z,44.85
2022-08-18T01:54:19.254Z,45.08
2022-08-18T01:54:50.608Z,44.97
2022-08-18T01:55:21.913Z,45.10
2022-08-18T01:55:53.279Z,44.84
2022-08-18T01:56:25.100Z,45.28
2022-08-18T01:56:58.946Z,44.63
2022-08-18T01:57:30.368Z,44.54
2022-08-18T01:58:01.693Z,44.51
2022-08-18T01:58:33.275Z,44.92
2022-08-18T01:59:04.742Z,44.47
2022-08-18T01:59:36.084Z,44.74
2022-08-18T02:00:07.691Z,44.44
2022-08-18T02:00:43.707Z,44.34
2022-08-18T02:01:15.273Z,44.77
2022-08-18T02:01:48.230Z,44.82
2022-08-18T02:02:21.899Z,44.80
2022-08-18T02:02:58.076Z,44.61
2022-08-18T02:03:37.085Z,44.41
2022-08-18T02:04:34.041Z,44.40
2022-08-18T02:05:01.458Z,44.69
2022-08-18T02:05:36.573Z,44.77
2022-08-18T02:06:09.816Z,44.68
2022-08-18T02:06:42.387Z,44.18
2022-08-18T02:07:19.271Z,44.20
2022-08-18T02:07:54.185Z,44.07
2022-08-18T02:08:28.086Z,44.67
2022-08-18T02:09:00.237Z,44.20
2022-08-18T02:09:31.549Z,44.18
2022-08-18T02:10:03.350Z,44.52
2022-08-18T02:10:34.725Z,44.51
2022-08-18T02:11:06.741Z,44.11
2022-08-18T02:11:38.071Z,44.43
2022-08-18T02:12:09.410Z,44.12
2022-08-18T02:12:40.748Z,44.42
2022-08-18T02:13:12.080Z,44.31
2022-08-18T02:13:43.394Z,44.49
2022-08-18T02:14:14.707Z,44.53
2022-08-18T02:14:46.058Z,44.37
2022-08-18T02:15:17.541Z,44.06
2022-08-18T02:15:48.863Z,44.42
2022-08-18T02:16:20.161Z,44.50
2022-08-18T02:16:51.438Z,44.46
2022-08-18T02:17:22.760Z,44.70
2022-08-18T02:17:54.111Z,44.47
2022-08-18T02:18:47.922Z,44.17
2022-08-18T02:19:18.494Z,44.12
2022-08-18T02:19:49.818Z,44.37
2022-08-18T02:20:21.154Z,44.74
2022-08-18T02:20:52.511Z,44.59
2022-08-18T02:21:23.969Z,44.50
2022-08-18T02:21:55.275Z,44.23
2022-08-18T02:22:26.573Z,44.61
2022-08-18T02:22:57.914Z,44.05
2022-08-18T02:23:29.203Z,44.44
2022-08-18T02:24:00.484Z,44.13
2022-08-18T02:24:31.794Z,44.08
2022-08-18T02:25:03.258Z,44.49
2022-08-18T02:25:34.559Z,44.04
2022-08-18T02:26:06.653Z,44.41
2022-08-18T02:26:37.990Z,43.95
2022-08-18T02:27:09.367Z,44.45
2022-08-18T02:27:40.696Z,44.39
2022-08-18T02:28:12.015Z,44.05
2022-08-18T02:28:43.341Z,43.90
2022-08-18T02:29:17.026Z,43.92
2022-08-18T02:29:48.343Z,44.03
2022-08-18T02:30:19.688Z,43.84
2022-08-18T02:30:51.033Z,44.30
2022-08-18T02:31:22.750Z,43.91
2022-08-18T02:31:54.160Z,44.17
2022-08-18T02:32:25.436Z,44.08
2022-08-18T02:33:00.725Z,44.18
2022-08-18T02:33:32.021Z,43.79
2022-08-18T02:34:03.357Z,44.05
2022-08-18T02:34:34.890Z,43.77
2022-08-18T02:35:06.260Z,43.90
2022-08-18T02:35:40.833Z,43.60
2022-08-18T02:36:12.135Z,43.93
2022-08-18T02:36:43.439Z,44.08
2022-08-18T02:37:15.703Z,43.76
2022-08-18T02:37:47.212Z,43.96
2022-08-18T02:38:18.522Z,43.65
2022-08-18T02:38:56.787Z,44.05
2022-08-18T02:39:33.203Z,43.82
2022-08-18T02:40:05.204Z,43.54
2022-08-18T02:40:36.576Z,43.94
2022-08-18T02:41:08.310Z,44.07
2022-08-18T02:41:39.623Z,43.79
2022-08-18T02:42:11.147Z,43.62
2022-08-18T02:42:42.821Z,43.58
2022-08-18T02:43:14.132Z,43.75
2022-08-18T02:43:45.460Z,43.69
2022-08-18T02:44:16.772Z,44.01
2022-08-18T02:44:48.089Z,43.99
2022-08-18T02:45:19.375Z,43.61
2022-08-18T02:45:50.701Z,43.87
2022-08-18T02:46:22.006Z,43.91
2022-08-18T02:46:55.027Z,43.83
2022-08-18T02:47:30.245Z,43.57
2022-08-18T02:48:04.500Z,43.45
2022-08-18T02:48:35.788Z,43.71
2022-08-18T02:49:07.085Z,43.87
2022-08-18T02:49:38.474Z,43.41
2022-08-18T02:50:10.988Z,43.68
2022-08-18T02:50:42.413Z,43.84
2022-08-18T02:51:14.285Z,43.63
2022-08-18T02:51:45.596Z,43.39
2022-08-18T02:52:16.920Z,43.50
2022-08-18T02:52:48.390Z,43.64
2022-08-18T02:53:19.695Z,43.98
2022-08-18T02:53:51.030Z,43.96
2022-08-18T02:54:25.289Z,43.86
2022-08-18T02:54:56.582Z,43.84
2022-08-18T02:55:27.926Z,43.88
2022-08-18T02:56:09.453Z,43.45
2022-08-18T02:56:42.370Z,43.78
2022-08-18T02:57:13.942Z,43.43
2022-08-18T02:57:45.796Z,43.77
2022-08-18T02:58:17.098Z,43.67
2022-08-18T02:58:49.032Z,43.51
2022-08-18T02:59:21.142Z,43.50
2022-08-18T02:59:52.463Z,43.89
2022-08-18T03:00:23.753Z,43.49
2022-08-18T03:00:55.165Z,43.39
2022-08-18T03:01:27.218Z,43.65
2022-08-18T03:02:00.304Z,43.70
2022-08-18T03:02:31.640Z,43.81
2022-08-18T03:03:02.935Z,43.87
2022-08-18T03:03:34.238Z,43.31
2022-08-18T03:04:06.255Z,43.32
2022-08-18T03:04:37.546Z,43.63
2022-08-18T03:05:09.011Z,43.78
2022-08-18T03:05:46.049Z,43.38
2022-08-18T03:06:17.467Z,43.45
2022-08-18T03:06:48.894Z,43.62
2022-08-18T03:07:21.596Z,43.61
2022-08-18T03:07:53.245Z,43.41
2022-08-18T03:08:24.709Z,43.85
2022-08-18T03:08:56.046Z,43.48
2022-08-18T03:09:27.468Z,43.69
2022-08-18T03:10:01.881Z,43.43
2022-08-18T03:10:53.163Z,43.63
2022-08-18T03:11:25.421Z,43.71
2022-08-18T03:11:56.748Z,43.29
2022-08-18T03:12:28.047Z,43.39
2022-08-18T03:12:59.356Z,43.30
2022-08-18T03:13:30.663Z,43.27
2022-08-18T03:14:01.963Z,43.59
2022-08-18T03:14:33.351Z,43.29
2022-08-18T03:15:04.877Z,43.70
2022-08-18T03:15:36.768Z,43.27
2022-08-18T03:16:08.104Z,43.35
2022-08-18T03:16:40.045Z,43.61
2022-08-18T03:17:25.993Z,43.43
2022-08-18T03:17:57.296Z,43.15
2022-08-18T03:18:28.627Z,43.23
2022-08-18T03:19:00.350Z,43.25
2022-08-18T03:19:31.724Z,43.16
2022-08-18T03:20:06.098Z,43.08
2022-08-18T03:20:37.435Z,43.03
2022-08-18T03:21:09.486Z,43.07
2022-08-18T03:21:41.275Z,43.45
2022-08-18T03:22:27.296Z,43.47
2022-08-18T03:23:05.438Z,42.99
2022-08-18T03:23:37.357Z,43.33
2022-08-18T03:24:10.663Z,42.99
2022-08-18T03:24:42.154Z,43.00
2022-08-18T03:25:13.511Z,42.98
2022-08-18T03:25:45.601Z,43.01
2022-08-18T03:26:17.029Z,43.09
2022-08-18T03:26:48.378Z,42.97
2022-08-18T03:27:19.709Z,43.25
2022-08-18T03:27:51.407Z,43.31
2022-08-18T03:28:22.848Z,43.03
2022-08-18T03:28:54.313Z,42.99
2022-08-18T03:29:31.218Z,42.89
2022-08-18T03:30:03.770Z,42.94
2022-08-18T03:30:35.076Z,43.24
2022-08-18T03:31:06.760Z,43.23
2022-08-18T03:31:38.096Z,42.89
2022-08-18T03:32:09.398Z,43.23
2022-08-18T03:32:40.696Z,42.79
2022-08-18T03:33:17.175Z,43.11
2022-08-18T03:33:48.493Z,43.14
2022-08-18T03:34:20.070Z,42.81
2022-08-18T03:34:51.508Z,43.30
2022-08-18T03:35:22.857Z,42.93
2022-08-18T03:35:54.258Z,42.77
2022-08-18T03:36:26.690Z,42.79
2022-08-18T03:36:58.136Z,43.20
2022-08-18T03:37:29.440Z,42.87
2022-08-18T03:38:00.746Z,42.86
2022-08-18T03:38:32.219Z,42.94
2022-08-18T03:39:06.956Z,43.27
2022-08-18T03:39:38.349Z,43.32
2022-08-18T03:40:10.078Z,43.02
2022-08-18T03:40:41.397Z,43.33
2022-08-18T03:41:13.308Z,43.39
2022-08-18T03:41:59.919Z,43.20
2022-08-18T03:42:32.675Z,43.49
2022-08-18T03:43:04.491Z,43.20
2022-08-18T03:43:55.778Z,43.42
2022-08-18T03:44:27.771Z,43.18
2022-08-18T03:44:59.064Z,43.17
2022-08-18T03:45:30.354Z,43.09
2022-08-18T03:46:02.262Z,43.01
2022-08-18T03:46:33.537Z,43.03
2022-08-18T03:47:08.396Z,43.26
2022-08-18T03:47:40.081Z,43.16
2022-08-18T03:48:11.393Z,42.97
2022-08-18T03:48:42.917Z,43.08
2022-08-18T03:49:14.292Z,43.40
2022-08-18T03:49:45.610Z,43.53
2022-08-18T03:50:17.021Z,43.36
2022-08-18T03:50:48.358Z,43.33
2022-08-18T03:51:21.000Z,43.04
2022-08-18T03:51:52.291Z,42.97
2022-08-18T03:52:23.574Z,43.26
2022-08-18T03:52:55.011Z,43.33
2022-08-18T03:53:26.363Z,43.21
2022-08-18T03:53:58.230Z,43.03
2022-08-18T03:54:29.917Z,42.92
2022-08-18T03:55:01.250Z,43.30
2022-08-18T03:55:34.171Z,42.92
2022-08-18T03:56:08.777Z,42.98
2022-08-18T03:56:40.872Z,42.92
2022-08-18T03:57:12.182Z,42.95
2022-08-18T03:57:43.735Z,43.12
2022-08-18T03:58:15.045Z,42.71
2022-08-18T03:58:46.936Z,43.12
2022-08-18T03:59:19.447Z,42.70
2022-08-18T03:59:50.824Z,42.91
2022-08-18T04:00:22.141Z,43.15
2022-08-18T04:00:53.687Z,43.03
2022-08-18T04:01:27.079Z,42.88
2022-08-18T04:01:58.715Z,42.76
2022-08-18T04:02:30.025Z,42.75
2022-08-18T04:03:02.162Z,42.80
2022-08-18T04:03:33.495Z,42.75
2022-08-18T04:04:05.267Z,43.11
2022-08-18T04:04:36.822Z,42.88
2022-08-18T04:05:14.425Z,43.00
2022-08-18T04:05:45.712Z,43.11
2022-08-18T04:06:17.505Z,43.06
2022-08-18T04:07:02.427Z,42.63
2022-08-18T04:07:33.786Z,42.66
2022-08-18T04:08:05.109Z,42.79
2022-08-18T04:08:36.452Z,42.90
2022-08-18T04:09:08.143Z,43.06
2022-08-18T04:09:39.426Z,42.70
2022-08-18T04:10:17.015Z,43.04
2022-08-18T04:10:51.080Z,43.08
2022-08-18T04:11:22.756Z,42.76
2022-08-18T04:11:54.096Z,43.12
2022-08-18T04:12:25.412Z,43.18
2022-08-18T04:12:56.736Z,42.75
2022-08-18T04:13:28.144Z,43.17
2022-08-18T04:13:59.486Z,42.80
2022-08-18T04:14:33.677Z,42.97
2022-08-18T04:15:05.156Z,42.97
2022-08-18T04:15:36.760Z,43.06
2022-08-18T04:16:08.135Z,42.95
2022-08-18T04:16:39.467Z,43.20
2022-08-18T04:17:10.781Z,43.07
2022-08-18T04:18:02.938Z,42.77
2022-08-18T04:18:33.396Z,42.85
2022-08-18T04:19:04.915Z,42.75
2022-08-18T04:19:36.323Z,43.02
2022-08-18T04:20:07.846Z,42.86
2022-08-18T04:20:39.178Z,42.90
2022-08-18T04:21:31.350Z,42.90
2022-08-18T04:22:02.772Z,43.27
2022-08-18T04:22:34.065Z,43.38
2022-08-18T04:23:05.355Z,43.03
2022-08-18T04:23:43.541Z,43.14
2022-08-18T04:24:15.585Z,43.19
2022-08-18T04:24:46.867Z,43.21
2022-08-18T04:25:18.191Z,43.37
2022-08-18T04:25:56.294Z,43.89
2022-08-18T04:26:27.609Z,43.38
2022-08-18T04:26:59.093Z,43.61
2022-08-18T04:27:30.622Z,43.28
2022-08-18T04:28:04.885Z,43.40
2022-08-18T04:28:36.196Z,43.78
2022-08-18T04:29:07.606Z,43.75
2022-08-18T04:29:38.907Z,43.73
2022-08-18T04:30:10.425Z,43.34
2022-08-18T04:30:41.704Z,43.40
2022-08-18T04:31:14.014Z,43.52
2022-08-18T04:31:45.330Z,43.70
2022-08-18T04:32:16.648Z,43.86
2022-08-18T04:32:47.965Z,43.77
2022-08-18T04:33:19.301Z,43.56
2022-08-18T04:33:50.597Z,44.04
2022-08-18T04:34:21.912Z,43.93
2022-08-18T04:34:53.220Z,43.66
2022-08-18T04:35:25.375Z,43.91
2022-08-18T04:35:56.867Z,43.71
2022-08-18T04:36:28.345Z,44.02
2022-08-18T04:36:59.768Z,43.96
2022-08-18T04:37:31.062Z,43.93
2022-08-18T04:38:04.590Z,44.26
2022-08-18T04:38:35.905Z,44.21
2022-08-18T04:39:07.846Z,43.87
2022-08-18T04:39:39.193Z,44.26
2022-08-18T04:40:11.019Z,43.98
2022-08-18T04:40:44.099Z,44.27
2022-08-18T04:41:15.393Z,44.04
2022-08-18T04:41:46.681Z,43.89
2022-08-18T04:42:17.993Z,44.36
2022-08-18T04:42:49.289Z,44.23
2022-08-18T04:43:20.614Z,43.72
2022-08-18T04:43:51.940Z,43.81
2022-08-18T04:44:23.276Z,44.01
2022-08-18T04:44:54.667Z,44.00
2022-08-18T04:45:25.969Z,44.15
2022-08-18T04:45:57.289Z,44.30
2022-08-18T04:46:28.692Z,44.33
2022-08-18T04:46:59.998Z,44.38
2022-08-18T04:47:31.312Z,44.38
2022-08-18T04:48:02.715Z,44.15
2022-08-18T04:48:34.933Z,44.34
2022-08-18T04:49:06.539Z,44.01
2022-08-18T04:49:37.974Z,44.36
2022-08-18T04:50:09.497Z,44.21
2022-08-18T04:50:40.793Z,44.11
2022-08-18T04:51:13.091Z,43.93
2022-08-18T04:52:33.974Z,44.36
2022-08-18T04:52:55.857Z,43.99
2022-08-18T04:53:27.173Z,44.45
2022-08-18T04:53:58.473Z,44.02
2022-08-18T04:54:29.858Z,44.31
2022-08-18T04:55:01.593Z,44.09
2022-08-18T04:55:33.148Z,44.29
2022-08-18T04:56:04.557Z,44.11
2022-08-18T04:56:38.606Z,44.14
2022-08-18T04:57:14.158Z,44.23
2022-08-18T04:57:45.467Z,44.47
2022-08-18T04:58:16.766Z,44.50
2022-08-18T04:58:48.223Z,44.33
2022-08-18T04:59:21.711Z,44.86
2022-08-18T04:59:53.038Z,44.84
2022-08-18T05:00:24.340Z,44.97
2022-08-18T05:00:59.363Z,45.03
2022-08-18T05:01:31.154Z,45.03
2022-08-18T05:02:02.571Z,44.91
2022-08-18T05:02:33.894Z,44.81
2022-08-18T05:03:05.198Z,44.86
2022-08-18T05:03:36.512Z,44.62
2022-08-18T05:04:14.774Z,44.90
2022-08-18T05:04:46.332Z,44.60
2022-08-18T05:05:17.656Z,44.91
2022-08-18T05:05:48.952Z,45.14
2022-08-18T05:06:20.728Z,44.68
2022-08-18T05:06:52.166Z,44.94
2022-08-18T05:07:23.490Z,44.97
2022-08-18T05:07:55.023Z,45.08
2022-08-18T05:08:26.418Z,45.17
2022-08-18T05:08:58.425Z,44.65
2022-08-18T05:09:29.710Z,44.58
2022-08-18T05:10:01.219Z,44.66
2022-08-18T05:10:32.603Z,45.06
2022-08-18T05:11:04.427Z,44.61
2022-08-18T05:11:35.976Z,44.70
2022-08-18T05:12:07.643Z,44.57
2022-08-18T05:12:39.136Z,45.08
2022-08-18T05:13:10.451Z,44.76
2022-08-18T05:13:41.828Z,45.07
2022-08-18T05:14:13.236Z,44.89
2022-08-18T05:14:44.783Z,45.20
2022-08-18T05:15:16.112Z,45.04
2022-08-18T05:16:09.571Z,45.02
2022-08-18T05:16:48.878Z,44.85
2022-08-18T05:17:20.495Z,45.13
2022-08-18T05:17:51.819Z,44.90
2022-08-18T05:18:23.652Z,45.22
2022-08-18T05:18:58.059Z,45.19
2022-08-18T05:19:29.488Z,44.83
2022-08-18T05:20:03.075Z,44.92
2022-08-18T05:20:34.427Z,45.30
2022-08-18T05:21:07.000Z,45.18
2022-08-18T05:21:42.211Z,45.07
2022-08-18T05:22:13.725Z,45.12
2022-08-18T05:22:45.843Z,45.23
2022-08-18T05:23:17.150Z,45.28
2022-08-18T05:23:49.044Z,45.46
2022-08-18T05:24:20.632Z,45.27
2022-08-18T05:24:52.209Z,45.61
2022-08-18T05:25:23.518Z,45.63
2022-08-18T05:26:00.343Z,45.77
2022-08-18T05:26:32.237Z,45.34
2022-08-18T05:27:03.630Z,45.51
2022-08-18T05:27:35.436Z,45.62
2022-08-18T05:28:06.749Z,45.70
2022-08-18T05:28:38.073Z,45.22
2022-08-18T05:29:18.572Z,45.12
2022-08-18T05:29:51.777Z,45.35
2022-08-18T05:30:23.284Z,45.26
2022-08-18T05:30:54.665Z,45.13
2022-08-18T05:31:27.731Z,45.43
2022-08-18T05:31:59.019Z,45.36
2022-08-18T05:32:47.877Z,45.61
2022-08-18T05:33:21.134Z,45.14
2022-08-18T05:33:52.581Z,45.47
2022-08-18T05:34:24.005Z,45.24
2022-08-18T05:34:55.307Z,45.27
2022-08-18T05:35:28.790Z,45.56
2022-08-18T05:36:01.567Z,45.12
2022-08-18T05:36:32.824Z,45.36
2022-08-18T05:37:08.584Z,45.64
2022-08-18T05:37:47.573Z,45.43
2022-08-18T05:38:37.938Z,45.16
2022-08-18T05:39:09.206Z,45.29
2022-08-18T05:39:53.076Z,45.58
2022-08-18T05:40:24.584Z,45.36
2022-08-18T05:41:13.611Z,45.57
2022-08-18T05:41:57.265Z,45.67
2022-08-18T05:42:29.856Z,45.42
2022-08-18T05:43:01.305Z,45.52
2022-08-18T05:43:32.758Z,45.62
2022-08-18T05:44:04.686Z,45.19
2022-08-18T05:44:37.742Z,45.50
2022-08-18T05:45:13.110Z,45.22
2022-08-18T05:45:44.559Z,45.31
2022-08-18T05:46:16.099Z,45.30
2022-08-18T05:46:53.309Z,45.41
2022-08-18T05:47:25.964Z,45.86
2022-08-18T05:47:58.102Z,45.42
2022-08-18T05:48:29.527Z,45.72
2022-08-18T05:49:01.045Z,45.26
2022-08-18T05:49:32.479Z,45.71
2022-08-18T05:50:05.649Z,45.17
2022-08-18T05:50:37.294Z,45.58
2022-08-18T05:51:16.823Z,45.34
2022-08-18T05:51:49.505Z,45.45
2022-08-18T05:52:22.881Z,45.22
2022-08-18T05:52:54.341Z,45.81
2022-08-18T05:53:25.856Z,45.67
2022-08-18T05:54:01.824Z,45.86
2022-08-18T05:54:38.104Z,45.59
2022-08-18T05:55:22.282Z,45.59
2022-08-18T05:56:00.824Z,45.91
2022-08-18T05:56:32.844Z,45.50
2022-08-18T05:57:05.567Z,45.60
2022-08-18T05:57:39.620Z,45.93
2022-08-18T05:58:13.383Z,45.82
2022-08-18T05:58:45.956Z,45.54
2022-08-18T05:59:26.665Z,45.48
2022-08-18T05:59:58.219Z,45.38
2022-08-18T06:00:29.843Z,45.47
2022-08-18T06:01:04.885Z,45.50
2022-08-18T06:01:39.378Z,45.60
2022-08-18T06:02:10.756Z,45.91
2022-08-18T06:02:46.520Z,45.77
2022-08-18T06:03:21.942Z,46.00
2022-08-18T06:03:54.143Z,45.88
2022-08-18T06:04:34.409Z,46.02
2022-08-18T06:05:23.504Z,45.62
2022-08-18T06:05:57.830Z,45.90
2022-08-18T06:06:29.255Z,45.92
2022-08-18T06:07:02.829Z,45.75
2022-08-18T06:07:37.074Z,45.76
2022-08-18T06:08:09.176Z,45.64
2022-08-18T06:08:42.011Z,45.90
2022-08-18T06:09:16.899Z,46.01
2022-08-18T06:09:50.058Z,46.11
2022-08-18T06:10:21.547Z,45.76
2022-08-18T06:10:53.040Z,46.23
2022-08-18T06:11:24.541Z,45.83
2022-08-18T06:11:57.116Z,45.74
2022-08-18T06:12:32.607Z,45.73
2022-08-18T06:13:09.268Z,46.01
2022-08-18T06:13:41.208Z,45.83
2022-08-18T06:14:12.702Z,45.78
2022-08-18T06:14:44.155Z,45.78
2022-08-18T06:15:20.537Z,46.15
2022-08-18T06:15:54.461Z,46.19
2022-08-18T06:16:33.697Z,46.07
2022-08-18T06:17:09.457Z,46.13
2022-08-18T06:17:59.505Z,45.99
2022-08-18T06:18:45.742Z,46.21
2022-08-18T06:19:24.259Z,46.13
2022-08-18T06:19:58.144Z,46.37
2022-08-18T06:20:30.986Z,46.08
2022-08-18T06:21:06.202Z,46.10
2022-08-18T06:21:56.086Z,46.52
2022-08-18T06:22:31.424Z,46.31
2022-08-18T06:23:09.878Z,45.95
2022-08-18T06:23:44.601Z,46.06
2022-08-18T06:24:27.959Z,46.45
2022-08-18T06:25:19.240Z,46.50
2022-08-18T06:26:08.942Z,46.53
2022-08-18T06:26:46.139Z,46.27
2022-08-18T06:27:17.509Z,46.33
2022-08-18T06:27:53.958Z,46.39
2022-08-18T06:28:25.478Z,46.00
2022-08-18T06:28:56.910Z,46.21
2022-08-18T06:29:31.868Z,46.25
2022-08-18T06:30:06.038Z,45.91
2022-08-18T06:30:42.834Z,46.07
2022-08-18T06:31:16.753Z,46.32
2022-08-18T06:31:57.528Z,46.21
2022-08-18T06:32:34.931Z,46.46
2022-08-18T06:33:29.493Z,46.09
2022-08-18T06:34:10.110Z,46.59
2022-08-18T06:34:44.296Z,46.28
2022-08-18T06:35:44.803Z,46.52
2022-08-18T06:36:25.054Z,46.17
2022-08-18T06:37:11.649Z,46.20
2022-08-18T06:37:47.049Z,46.49
2022-08-18T06:38:18.482Z,46.47
2022-08-18T06:39:12.913Z,46.52
2022-08-18T06:39:48.088Z,46.17
2022-08-18T06:40:19.788Z,46.23
2022-08-18T06:40:51.646Z,46.18
2022-08-18T06:41:40.808Z,46.54
2022-08-18T06:42:24.294Z,46.28
2022-08-18T06:42:55.778Z,46.26
2022-08-18T06:43:31.564Z,46.13
2022-08-18T06:44:05.111Z,46.06
2022-08-18T06:44:40.693Z,46.08
2022-08-18T06:45:12.098Z,45.99
2022-08-18T06:45:44.536Z,45.94
2022-08-18T06:46:17.714Z,46.01
2022-08-18T06:46:55.074Z,46.31
2022-08-18T06:47:35.874Z,46.54
2022-08-18T06:48:15.608Z,46.19
2022-08-18T06:48:51.267Z,46.14
2022-08-18T06:49:32.408Z,46.41
2022-08-18T06:50:22.606Z,46.44
2022-08-18T06:50:56.261Z,46.13
2022-08-18T06:51:27.894Z,46.53
2022-08-18T06:51:59.314Z,46.08
2022-08-18T06:52:31.939Z,46.52
2022-08-18T06:53:06.769Z,46.12
2022-08-18T06:54:07.978Z,46.12
2022-08-18T06:54:39.406Z,46.42
2022-08-18T06:55:31.102Z,46.14
2022-08-18T06:56:09.065Z,46.19
2022-08-18T06:56:58.316Z,46.18
2022-08-18T06:57:31.269Z,46.08
2022-08-18T06:58:04.021Z,46.12
2022-08-18T06:58:35.493Z,46.13
2022-08-18T06:59:18.889Z,46.22
2022-08-18T07:00:16.278Z,46.18
2022-08-18T07:00:51.162Z,46.65
2022-08-18T07:01:26.677Z,46.21
2022-08-18T07:02:16.251Z,46.21
2022-08-18T07:02:58.150Z,46.38
2022-08-18T07:03:35.461Z,46.54
2022-08-18T07:04:06.854Z,46.17
2022-08-18T07:04:39.543Z,46.07
2022-08-18T07:05:14.138Z,46.06
2022-08-18T07:05:57.840Z,46.19
2022-08-18T07:06:29.983Z,46.34
2022-08-18T07:07:12.161Z,46.74
2022-08-18T07:07:43.643Z,46.61
2022-08-18T07:08:16.099Z,46.51
2022-08-18T07:08:50.865Z,46.63
2022-08-18T07:09:26.150Z,46.30
2022-08-18T07:09:57.765Z,46.22
2022-08-18T07:10:32.085Z,46.54
2022-08-18T07:11:12.661Z,46.33
2022-08-18T07:11:57.643Z,46.58
2022-08-18T07:12:32.858Z,46.50
2022-08-18T07:13:13.242Z,46.59
2022-08-18T07:13:45.142Z,46.50
2022-08-18T07:14:23.102Z,46.53